Marion Dufresne — FNIN — position and weather

sailwx.info

Track history (hours):
 
Tides and Currents Weather Stations Pressure Air Temp Water Temp Dewpoint Dewpoint Depression Visibility Wind Speed Wind Dir Waves Ship Positions

Oceanographic research ship Marion Dufresne (France)

Detailed information on ship capabilities available from University of Delaware's Ocean Information Center and ARCUS's ALIAS (Arctic Logistics Information and Support) project.

Last reported at 2018-Jun-21 19:43 UTC. Time now 2018-Jun-22 18:45 UTC.
Position N 22°17' E 119°56'.

Length 120 m; beam 21 m.

Type: Ship. MMSI: 227235000.

Date/timePositionNaut miles runAvg speedWind from/ knotsBaromVisibWave heightAir tempDewpointWater temp
2018-Jun-21 19:43N 22°17' E 119°56'0 0.0
2018-Jun-21 19:29N 22°17' E 119°56'0 0.0
2018-Jun-21 19:00N 22°17' E 119°56'0 0.0
2018-Jun-21 18:30N 22°17' E 119°56'0 0.0
2018-Jun-21 17:59N 22°17' E 119°56'0 0.4
2018-Jun-21 17:28N 22°17' E 119°56'3 6.7
2018-Jun-21 17:00N 22°15' E 119°54'4 5.7
2018-Jun-21 16:15N 22°11' E 119°51'7 5.1
2018-Jun-21 14:51N 22°17' E 119°56'0 0.5
2018-Jun-21 14:30N 22°17' E 119°56'0 0.1
2018-Jun-21 13:45N 22°17' E 119°56'0 0.8
2018-Jun-21 13:30N 22°17' E 119°56'0 0.2
2018-Jun-21 13:00N 22°17' E 119°56'0 0.0
2018-Jun-21 12:30N 22°17' E 119°56'0 0.0
2018-Jun-21 12:00N 22°17' E 119°56'0 0.0
2018-Jun-21 11:23N 22°17' E 119°56'0 0.0
2018-Jun-21 11:00N 22°17' E 119°56'0 0.0
2018-Jun-21 10:28N 22°17' E 119°56'0 0.0
2018-Jun-21 10:00N 22°17' E 119°56'1 1.8
2018-Jun-21 09:24N 22°18' E 119°56'2 4.5
2018-Jun-21 09:00N 22°17' E 119°56'2 2.8
2018-Jun-21 08:25N 22°18' E 119°57'2 4.8
2018-Jun-21 08:00N 22°20' E 119°57'3 4.9
2018-Jun-21 07:29N 22°17' E 119°56'0 0.6
2018-Jun-21 06:48N 22°17' E 119°56'0 0.0
2018-Jun-21 06:28N 22°17' E 119°56'0 0.0
2018-Jun-21 05:53N 22°17' E 119°56'0 0.0
2018-Jun-21 05:30N 22°17' E 119°56'0 0.0
2018-Jun-21 05:00N 22°17' E 119°56'0 0.0
2018-Jun-21 04:30N 22°17' E 119°56'0 0.0
2018-Jun-21 04:00N 22°17' E 119°56'0 0.0
2018-Jun-21 03:28N 22°17' E 119°56'0 0.0
2018-Jun-21 02:22N 22°17' E 119°56'0 0.6
2018-Jun-21 01:58N 22°17' E 119°56'0 1.0
2018-Jun-21 01:30N 22°17' E 119°57'0 0.7
2018-Jun-21 00:58N 22°17' E 119°57'1 0.3
2018-Jun-20 21:44N 22°18' E 119°56'1 2.7
2018-Jun-20 21:30N 22°17' E 119°56'0 0.9
2018-Jun-20 21:00N 22°17' E 119°57'9 1.0
2018-Jun-20 12:49N 22°10' E 119°53'  
Track history (hours):
 
Tides and Currents Weather Stations Pressure Air Temp Water Temp Dewpoint Dewpoint Depression Visibility Wind Speed Wind Dir Waves Ship Positions

Oceanographic research ship Marion Dufresne (France)

Detailed information on ship capabilities available from University of Delaware's Ocean Information Center and ARCUS's ALIAS (Arctic Logistics Information and Support) project.

Last reported at 2018-Jun-21 19:43 UTC. Time now 2018-Jun-22 18:45 UTC.
Position N 22°17' E 119°56'.

Length 120 m; beam 21 m.

Type: Ship. MMSI: 227235000.

Date/timePositionNaut miles runAvg speedWind from/ knotsBaromVisibWave heightAir tempDewpointWater temp
2018-Jun-21 19:43N 22°17' E 119°56'0 0.0
2018-Jun-21 19:29N 22°17' E 119°56'0 0.0
2018-Jun-21 19:00N 22°17' E 119°56'0 0.0
2018-Jun-21 18:30N 22°17' E 119°56'0 0.0
2018-Jun-21 17:59N 22°17' E 119°56'0 0.4
2018-Jun-21 17:28N 22°17' E 119°56'3 6.7
2018-Jun-21 17:00N 22°15' E 119°54'4 5.7
2018-Jun-21 16:15N 22°11' E 119°51'7 5.1
2018-Jun-21 14:51N 22°17' E 119°56'0 0.5
2018-Jun-21 14:30N 22°17' E 119°56'0 0.1
2018-Jun-21 13:45N 22°17' E 119°56'0 0.8
2018-Jun-21 13:30N 22°17' E 119°56'0 0.2
2018-Jun-21 13:00N 22°17' E 119°56'0 0.0
2018-Jun-21 12:30N 22°17' E 119°56'0 0.0
2018-Jun-21 12:00N 22°17' E 119°56'0 0.0
2018-Jun-21 11:23N 22°17' E 119°56'0 0.0
2018-Jun-21 11:00N 22°17' E 119°56'0 0.0
2018-Jun-21 10:28N 22°17' E 119°56'0 0.0
2018-Jun-21 10:00N 22°17' E 119°56'1 1.8
2018-Jun-21 09:24N 22°18' E 119°56'2 4.5
2018-Jun-21 09:00N 22°17' E 119°56'2 2.8
2018-Jun-21 08:25N 22°18' E 119°57'2 4.8
2018-Jun-21 08:00N 22°20' E 119°57'3 4.9
2018-Jun-21 07:29N 22°17' E 119°56'0 0.6
2018-Jun-21 06:48N 22°17' E 119°56'0 0.0
2018-Jun-21 06:28N 22°17' E 119°56'0 0.0
2018-Jun-21 05:53N 22°17' E 119°56'0 0.0
2018-Jun-21 05:30N 22°17' E 119°56'0 0.0
2018-Jun-21 05:00N 22°17' E 119°56'0 0.0
2018-Jun-21 04:30N 22°17' E 119°56'0 0.0
2018-Jun-21 04:00N 22°17' E 119°56'0 0.0
2018-Jun-21 03:28N 22°17' E 119°56'0 0.0
2018-Jun-21 02:22N 22°17' E 119°56'0 0.6
2018-Jun-21 01:58N 22°17' E 119°56'0 1.0
2018-Jun-21 01:30N 22°17' E 119°57'0 0.7
2018-Jun-21 00:58N 22°17' E 119°57'1 0.3
2018-Jun-20 21:44N 22°18' E 119°56'1 2.7
2018-Jun-20 21:30N 22°17' E 119°56'0 0.9
2018-Jun-20 21:00N 22°17' E 119°57'9 1.0
2018-Jun-20 12:49N 22°10' E 119°53'  

Dump ship's entire track history